Clarksville, AR

9:24 AM CDT on March 28, 2015 (GMT -0500)
Boone County | | Change Station
CLOSE
Current Station
Airport
Location: Harrison,
Elevation: 1365 ft
Nearby Weather Stations

Elev 1365 ft 36.26 °N, 93.15 °W | Updated 31 minutes ago

Rain
Rain
39 °F
Feels Like 31 °F
N
14
Wind Variable Wind from SE

Today
High -- | Low -- °F
--% Chance of Precip.
Yesterday
High -- | Low -- °F
Precip. -- in
7:06 AM 7:32 PM
Waxing Gibbous, 62% visible
Pressure 30.17 in
Visibility 10.0 miles
Clouds Few 7000 ft
Mostly Cloudy 8500 ft
Windchill 31 °F
Dew Point 31 °F
Humidity 73%
Rainfall 0.00 in
Snow Depth Not available.
UV 1 out of 12
Pollen 10.10 out of 12
Air Quality Not available.
Flu Activity Not available.
METAR KHRO 281353Z AUTO 13012KT 10SM FEW070 BKN085 04/M01 A3016 RMK AO2 SLP216 T00391006

More Conditions Fewer Conditions

Pressure 30.17 in
Visibility 10.0 miles
Clouds Few 7000 ft
Mostly Cloudy 8500 ft
Windchill 31 °F
Dew Point 31 °F
Humidity 73%
Rainfall 0.00 in
Snow Depth Not available.
UV 1 out of 12
Pollen 10.10 out of 12
Air Quality Not available.
Flu Activity Not available.
METAR KHRO 281353Z AUTO 13012KT 10SM FEW070 BKN085 04/M01 A3016 RMK AO2 SLP216 T00391006

More Conditions Fewer Conditions

10-Day Weather Forecast

Almanac

Astronomy

Mar. 28, 2015 Rise Set
Actual Time
Civil Twilight
Nautical Twilight
Astronomical Twilight
Moon
Length of Visible Light
Length of Day
Tomorrow will be .
, % of the Moon is Illuminated

Today's Extremes

State Highs State Lows

Community

WunderPhotos

Upload Photos

1,808,984 photos uploaded!

WunderBlogs® & News

Nearby

Air Quality

  Air Quality AQ Index Pollutant
Not available.

Snow Depth

Station Depth Elevation

Earthquake Activity

City Distance Mag. Time & Date
Minimum magnitude displayed is 2.5.

Coastal Water Temperatures

Place Temperature

Stations

Nearby Weather Stations

Station Location Temp. Windchill Dew Point Humidity Wind Precip. Elev Updated Type